Time;durP1;ratioP1;P1;durP2;ratioP2;P2;SDS_P1;SDS_P2;PMS_P1;PMS_P2;Temp;Humidity;BMP_temperature;BMP_pressure;BME280_temperature;BME280_humidity;BME280_pressure;Samples;Min_cycle;Max_cycle;Signal;HPM_P1;HPM_P2
2021/01/03 00:01:15;;;;;;;10.98;2.58;;;17.40;92.20;;;;;;4993562;28;20029;-67
2021/01/03 00:03:42;;;;;;;11.45;2.95;;;17.40;93.20;;;;;;4993616;28;20049;-67
2021/01/03 00:06:12;;;;;;;9.32;2.45;;;17.40;93.60;;;;;;5004029;28;20396;-68
2021/01/03 00:08:38;;;;;;;11.80;2.63;;;17.30;94.50;;;;;;4993452;28;20045;-67
2021/01/03 00:11:05;;;;;;;5.90;2.22;;;17.30;94.50;;;;;;4993066;28;20033;-67
2021/01/03 00:13:32;;;;;;;11.75;2.40;;;17.20;94.60;;;;;;4989601;28;20113;-67
2021/01/03 00:15:58;;;;;;;7.32;2.55;;;17.20;94.90;;;;;;4994277;28;20022;-67
2021/01/03 00:18:28;;;;;;;12.23;2.92;;;17.00;94.80;;;;;;4994347;28;20037;-67
2021/01/03 00:20:54;;;;;;;10.32;3.10;;;17.00;95.60;;;;;;4992552;28;20038;-67
2021/01/03 00:23:21;;;;;;;15.48;3.17;;;16.80;96.30;;;;;;4977713;28;20029;-67
2021/01/03 00:25:48;;;;;;;14.25;3.40;;;16.80;97.00;;;;;;4988722;28;20074;-68
2021/01/03 00:28:15;;;;;;;12.13;2.35;;;16.70;97.30;;;;;;4994154;28;20389;-67
2021/01/03 00:30:42;;;;;;;14.70;3.63;;;16.60;97.90;;;;;;4987155;28;20048;-66
2021/01/03 00:33:09;;;;;;;12.23;3.95;;;16.50;98.70;;;;;;4991385;28;20049;-68
2021/01/03 00:35:36;;;;;;;16.58;3.72;;;16.30;99.40;;;;;;4994207;28;20041;-65
2021/01/03 00:38:06;;;;;;;29.02;5.38;;;16.00;99.90;;;;;;4993739;28;20072;-63
2021/01/03 00:40:34;;;;;;;24.17;4.38;;;15.70;99.90;;;;;;4984804;28;20049;-68
2021/01/03 00:43:01;;;;;;;21.45;5.30;;;15.60;99.90;;;;;;4994022;28;20408;-65
2021/01/03 00:45:27;;;;;;;15.50;3.88;;;15.40;99.90;;;;;;5004088;28;20030;-65
2021/01/03 00:47:54;;;;;;;20.65;5.13;;;15.40;99.90;;;;;;4994231;28;20022;-65
2021/01/03 00:50:21;;;;;;;19.17;4.38;;;15.30;99.90;;;;;;4989010;28;20046;-66
2021/01/03 00:52:48;;;;;;;23.00;4.82;;;15.20;99.90;;;;;;4993826;28;20022;-65
2021/01/03 00:55:15;;;;;;;20.98;5.65;;;15.20;99.90;;;;;;4994212;28;20083;-65
2021/01/03 00:57:41;;;;;;;17.77;5.13;;;15.00;99.90;;;;;;4990967;28;20112;-65
2021/01/03 01:00:20;;;;;;;20.95;4.38;;;15.00;99.90;;;;;;4990252;28;20049;-66
2021/01/03 01:02:50;;;;;;;22.38;3.80;;;15.00;99.90;;;;;;4994221;28;20122;-65
2021/01/03 01:05:18;;;;;;;18.40;4.55;;;14.70;99.90;;;;;;4989374;28;20031;-65
2021/01/03 01:07:45;;;;;;;18.63;4.45;;;14.50;99.90;;;;;;4995672;28;20034;-65
2021/01/03 01:10:22;;;;;;;16.85;3.92;;;14.30;99.90;;;;;;4993481;28;20324;-66
2021/01/03 01:12:50;;;;;;;18.77;4.30;;;14.20;99.90;;;;;;4986739;28;20018;-65
2021/01/03 01:15:19;;;;;;;17.70;5.23;;;14.00;99.90;;;;;;4986719;28;20103;-66
2021/01/03 01:17:48;;;;;;;16.77;4.30;;;14.10;99.90;;;;;;4993734;28;20065;-66
2021/01/03 01:20:15;;;;;;;;;;;14.10;99.90;;;;;;4994088;28;20134;-65
2021/01/03 01:22:41;;;;;;;13.23;5.05;;;13.90;99.90;;;;;;4993667;28;19977;-66
2021/01/03 01:25:10;;;;;;;16.20;4.53;;;13.70;99.90;;;;;;4992488;28;20031;-66
2021/01/03 01:27:37;;;;;;;17.98;4.90;;;13.50;99.90;;;;;;4985567;28;20120;-65
2021/01/03 01:30:06;;;;;;;16.23;4.38;;;13.40;99.90;;;;;;4993658;28;20030;-67
2021/01/03 01:32:33;;;;;;;15.05;4.22;;;13.30;99.90;;;;;;4985598;28;20106;-65
2021/01/03 01:35:02;;;;;;;16.95;4.28;;;13.20;99.90;;;;;;4998690;28;20408;-65
2021/01/03 01:37:29;;;;;;;17.30;5.15;;;13.20;99.90;;;;;;5000302;28;20125;-66
2021/01/03 01:39:55;;;;;;;18.00;4.18;;;13.00;99.90;;;;;;5007708;28;20025;-65
2021/01/03 01:42:22;;;;;;;21.52;4.68;;;13.00;99.90;;;;;;5005381;28;20108;-65
2021/01/03 01:44:49;;;;;;;16.60;5.00;;;12.90;99.90;;;;;;5002070;28;20058;-65
2021/01/03 01:47:36;;;;;;;15.93;3.92;;;12.90;99.90;;;;;;4996890;28;20038;-66
2021/01/03 01:50:10;;;;;;;20.45;4.65;;;12.80;99.90;;;;;;4995610;28;20118;-66
2021/01/03 01:52:43;;;;;;;15.70;4.65;;;12.90;99.90;;;;;;5001019;28;20065;-65
2021/01/03 01:55:16;;;;;;;13.80;4.43;;;12.90;99.90;;;;;;5001196;28;20038;-67
2021/01/03 01:58:01;;;;;;;15.50;4.05;;;12.80;99.90;;;;;;5000714;28;20066;-66
2021/01/03 02:00:32;;;;;;;16.35;4.43;;;12.80;99.90;;;;;;4998869;28;20147;-68
2021/01/03 02:03:13;;;;;;;13.88;4.20;;;12.70;99.90;;;;;;4996149;28;20022;-68
2021/01/03 02:05:57;;;;;;;18.60;5.30;;;12.60;99.90;;;;;;4991219;28;20026;-68
2021/01/03 02:08:45;;;;;;;19.08;4.43;;;12.70;99.90;;;;;;4994136;28;20037;-66
2021/01/03 02:11:17;;;;;;;17.27;4.70;;;12.80;99.90;;;;;;4994116;28;20026;-66
2021/01/03 02:13:51;;;;;;;17.45;6.80;;;12.80;99.90;;;;;;4993675;28;20041;-65
2021/01/03 02:16:21;;;;;;;15.25;5.15;;;12.60;99.90;;;;;;4994693;28;20045;-69
2021/01/03 02:18:49;;;;;;;17.33;6.38;;;12.40;99.90;;;;;;4993679;28;20030;-67
2021/01/03 02:21:44;;;;;;;16.52;7.32;;;12.40;99.90;;;;;;4992664;28;20030;-68
2021/01/03 02:24:32;;;;;;;16.15;5.18;;;12.50;99.90;;;;;;4995406;28;20134;-67
2021/01/03 02:27:35;;;;;;;11.95;6.03;;;12.50;99.90;;;;;;4983151;28;20118;-67
2021/01/03 02:30:04;;;;;;;12.35;5.15;;;12.40;99.90;;;;;;4993275;28;20100;-66
2021/01/03 02:32:31;;;;;;;;;;;12.30;99.90;;;;;;5000026;28;20042;-65
2021/01/03 02:34:58;;;;;;;18.77;6.53;;;12.10;99.90;;;;;;4994179;28;19910;-65
2021/01/03 02:37:35;;;;;;;21.02;6.80;;;11.90;99.90;;;;;;4995434;28;20432;-65
2021/01/03 02:40:09;;;;;;;21.35;5.97;;;11.90;99.90;;;;;;4992858;28;20037;-66
2021/01/03 02:42:38;;;;;;;17.52;6.03;;;11.80;99.90;;;;;;4994367;28;20429;-65
2021/01/03 02:45:14;;;;;;;17.52;5.50;;;11.70;99.90;;;;;;4993958;28;20053;-65
2021/01/03 02:47:41;;;;;;;21.77;6.40;;;11.70;99.90;;;;;;4995702;28;20061;-65
2021/01/03 02:50:11;;;;;;;21.17;5.82;;;11.90;99.90;;;;;;4997166;28;20401;-67
2021/01/03 02:52:40;;;;;;;17.85;5.20;;;12.00;99.90;;;;;;4995276;28;20031;-65
2021/01/03 02:55:07;;;;;;;;;;;11.80;99.90;;;;;;4992840;28;20029;-68
2021/01/03 02:57:34;;;;;;;17.00;5.35;;;11.70;99.90;;;;;;4995355;28;19961;-67
2021/01/03 03:00:01;;;;;;;19.38;5.05;;;11.70;99.90;;;;;;4994778;28;20026;-69
2021/01/03 03:02:28;;;;;;;16.38;6.10;;;11.70;99.90;;;;;;4995668;28;20243;-69
2021/01/03 03:04:55;;;;;;;24.73;6.35;;;11.70;99.90;;;;;;4995491;28;20348;-69
2021/01/03 03:07:21;;;;;;;17.38;5.82;;;11.70;99.90;;;;;;4995464;28;20037;-69
2021/01/03 03:09:48;;;;;;;25.10;6.15;;;11.70;99.90;;;;;;4994163;28;20037;-68
2021/01/03 03:12:17;;;;;;;17.40;4.88;;;11.80;99.90;;;;;;4992196;28;20036;-67
2021/01/03 03:14:47;;;;;;;12.52;5.30;;;11.90;99.90;;;;;;4994023;28;20437;-68
2021/01/03 03:17:13;;;;;;;17.30;4.85;;;11.90;99.90;;;;;;4995422;28;20113;-68
2021/01/03 03:19:40;;;;;;;20.65;6.07;;;11.70;99.90;;;;;;4991648;28;20420;-68
2021/01/03 03:22:07;;;;;;;14.95;5.18;;;11.60;99.90;;;;;;4992560;28;20628;-68
2021/01/03 03:24:33;;;;;;;17.05;5.05;;;11.40;99.90;;;;;;4994763;28;20026;-68
2021/01/03 03:27:02;;;;;;;23.90;5.88;;;11.40;99.90;;;;;;4994862;28;20070;-69
2021/01/03 03:29:29;;;;;;;14.38;5.47;;;11.30;99.90;;;;;;4995188;28;20037;-68
2021/01/03 03:31:57;;;;;;;22.33;5.28;;;11.30;99.90;;;;;;4988344;28;20093;-67
2021/01/03 03:34:25;;;;;;;18.33;4.93;;;11.20;99.90;;;;;;4993626;28;20034;-67
2021/01/03 03:36:56;;;;;;;20.92;5.40;;;11.20;99.90;;;;;;4980690;28;20038;-68
2021/01/03 03:39:24;;;;;;;26.38;6.68;;;11.20;99.90;;;;;;4994948;28;20115;-68
2021/01/03 03:41:55;;;;;;;16.30;5.18;;;11.20;99.90;;;;;;4994718;28;20162;-68
2021/01/03 03:44:22;;;;;;;23.23;6.35;;;11.20;99.90;;;;;;5006832;28;20034;-68
2021/01/03 03:47:01;;;;;;;19.20;5.18;;;11.20;99.90;;;;;;5006357;28;20544;-68
2021/01/03 03:49:27;;;;;;;;;;;11.50;99.90;;;;;;4997505;28;20408;-68
2021/01/03 03:51:55;;;;;;;27.38;5.90;;;11.60;99.90;;;;;;4996670;28;19925;-69
2021/01/03 03:54:25;;;;;;;18.38;5.35;;;11.60;99.90;;;;;;4994784;28;20088;-68
2021/01/03 03:56:59;;;;;;;18.13;5.78;;;11.50;99.90;;;;;;4997813;28;20029;-68
2021/01/03 03:59:27;;;;;;;22.90;5.68;;;11.30;99.90;;;;;;4999382;28;20065;-71
2021/01/03 04:01:54;;;;;;;23.27;5.63;;;11.20;99.90;;;;;;4994931;28;20026;-69
2021/01/03 04:04:22;;;;;;;18.17;6.32;;;11.20;99.90;;;;;;4997212;28;20706;-65
2021/01/03 04:06:49;;;;;;;25.10;6.50;;;11.30;99.90;;;;;;4994350;28;20405;-68
2021/01/03 04:09:17;;;;;;;18.52;5.35;;;11.40;99.90;;;;;;4988351;28;20117;-66
2021/01/03 04:11:45;;;;;;;21.30;6.60;;;11.50;99.90;;;;;;4994412;28;20088;-69
2021/01/03 04:14:14;;;;;;;18.17;5.72;;;11.30;99.90;;;;;;4988327;28;20042;-70
2021/01/03 04:16:49;;;;;;;20.40;7.18;;;11.30;99.90;;;;;;4987695;28;20133;-75
2021/01/03 04:19:16;;;;;;;16.15;7.57;;;11.40;99.90;;;;;;4992829;28;20054;-69
2021/01/03 04:21:51;;;;;;;15.70;6.43;;;11.50;99.90;;;;;;4988264;28;20376;-69
2021/01/03 04:24:18;;;;;;;18.67;6.63;;;11.60;99.90;;;;;;4986591;28;20293;-70
2021/01/03 04:26:57;;;;;;;17.02;7.32;;;11.30;99.90;;;;;;4985617;28;20093;-70
2021/01/03 04:29:24;;;;;;;16.90;6.45;;;11.10;99.90;;;;;;4988536;28;20037;-71
2021/01/03 04:32:00;;;;;;;18.45;6.43;;;11.10;99.90;;;;;;4983027;28;20057;-69
2021/01/03 04:34:27;;;;;;;16.60;7.47;;;11.00;99.90;;;;;;5002340;28;20047;-69
2021/01/03 04:36:56;;;;;;;18.92;7.15;;;10.90;99.90;;;;;;5001209;28;20027;-69
2021/01/03 04:39:24;;;;;;;25.17;8.88;;;10.90;99.90;;;;;;4994017;28;20468;-70
2021/01/03 04:42:03;;;;;;;18.40;8.68;;;11.00;99.90;;;;;;4993906;28;20405;-71
2021/01/03 04:44:39;;;;;;;;;;;11.10;99.90;;;;;;4994050;28;20030;-69
2021/01/03 04:47:14;;;;;;;19.13;9.43;;;11.10;99.90;;;;;;4994113;28;20004;-70
2021/01/03 04:49:45;;;;;;;21.30;8.40;;;11.10;99.90;;;;;;4980193;28;20037;-67
2021/01/03 04:52:56;;;;;;;18.88;6.65;;;11.10;99.90;;;;;;5000865;28;20109;-68
2021/01/03 04:55:28;;;;;;;19.58;7.07;;;11.20;99.90;;;;;;4982835;28;20042;-71
2021/01/03 04:58:13;;;;;;;17.77;6.50;;;11.30;99.90;;;;;;4993040;28;20178;-69
2021/01/03 05:01:01;;;;;;;18.52;6.50;;;11.30;99.90;;;;;;4993378;28;20169;-69
2021/01/03 05:03:54;;;;;;;21.55;5.30;;;11.20;99.90;;;;;;4993406;28;20049;-68
2021/01/03 05:06:24;;;;;;;11.35;4.85;;;11.20;99.90;;;;;;4995963;28;20036;-68
2021/01/03 05:09:01;;;;;;;14.15;5.88;;;11.10;99.90;;;;;;4983905;28;20043;-69
2021/01/03 05:12:09;;;;;;;17.00;7.43;;;11.10;99.90;;;;;;4987005;28;20122;-68
2021/01/03 05:15:13;;;;;;;22.10;6.00;;;11.00;99.90;;;;;;4956442;28;20031;-68
2021/01/03 05:17:42;;;;;;;15.27;5.80;;;11.20;99.90;;;;;;4980249;28;20044;-76
2021/01/03 05:20:10;;;;;;;16.05;5.05;;;11.20;99.90;;;;;;4994139;28;20034;-75
2021/01/03 05:22:40;;;;;;;22.98;6.30;;;11.30;99.90;;;;;;4996639;28;20022;-72
2021/01/03 05:25:09;;;;;;;17.20;5.13;;;11.10;99.90;;;;;;4979855;28;20393;-75
2021/01/03 05:27:36;;;;;;;16.92;6.10;;;11.00;99.90;;;;;;5000927;28;20045;-71
2021/01/03 05:30:19;;;;;;;17.15;5.60;;;10.90;99.90;;;;;;4987463;28;20040;-73
2021/01/03 05:32:47;;;;;;;22.63;6.22;;;10.70;99.90;;;;;;4986926;28;20117;-73
2021/01/03 05:35:27;;;;;;;22.15;6.82;;;10.60;99.90;;;;;;4985375;28;20027;-70
2021/01/03 05:37:56;;;;;;;18.52;6.70;;;10.60;99.90;;;;;;4985975;28;20274;-74
2021/01/03 05:40:35;;;;;;;20.83;6.53;;;10.50;99.90;;;;;;4991104;28;20647;-75
2021/01/03 05:43:23;;;;;;;12.52;4.95;;;10.50;99.90;;;;;;4990258;28;20065;-73
2021/01/03 05:46:02;;;;;;;14.10;7.07;;;10.50;99.90;;;;;;4996413;28;20125;-72
2021/01/03 05:48:42;;;;;;;28.25;6.97;;;10.60;99.90;;;;;;4993291;28;20026;-73
2021/01/03 05:51:27;;;;;;;18.75;7.93;;;10.60;99.90;;;;;;4992862;28;20070;-73
2021/01/03 05:54:13;;;;;;;16.00;5.75;;;10.50;99.90;;;;;;4989448;28;20022;-71
2021/01/03 05:56:43;;;;;;;17.23;6.68;;;10.50;99.90;;;;;;4992698;28;20041;-70
2021/01/03 05:59:31;;;;;;;20.45;6.65;;;10.40;99.90;;;;;;4986820;28;20053;-70
2021/01/03 06:02:23;;;;;;;16.52;6.38;;;10.30;99.90;;;;;;4997868;28;20085;-71
2021/01/03 06:05:30;;;;;;;18.77;7.25;;;10.20;99.90;;;;;;4991053;28;20022;-71
2021/01/03 06:08:02;;;;;;;19.88;6.78;;;10.10;99.90;;;;;;4988294;28;20145;-73
2021/01/03 06:10:37;;;;;;;25.77;8.45;;;10.10;99.90;;;;;;4990458;28;20114;-73
2021/01/03 06:13:07;;;;;;;17.45;7.00;;;10.10;99.90;;;;;;4992631;28;20033;-73
2021/01/03 06:15:40;;;;;;;18.65;7.53;;;10.30;99.90;;;;;;4991157;28;20064;-73
2021/01/03 06:18:15;;;;;;;12.40;6.57;;;10.20;99.90;;;;;;4991463;28;20297;-72
2021/01/03 06:23:30;;;;;;;20.45;7.30;;;10.20;99.90;;;;;;5310274;22;20117;-72
2021/01/03 06:26:07;;;;;;;21.77;8.23;;;10.00;99.90;;;;;;4988731;28;20344;-68
2021/01/03 06:28:50;;;;;;;18.98;7.97;;;9.80;99.90;;;;;;4986888;28;20313;-65
2021/01/03 06:31:28;;;;;;;17.77;6.82;;;9.70;99.90;;;;;;4994072;28;20109;-66
2021/01/03 06:34:17;;;;;;;15.80;7.00;;;9.70;99.90;;;;;;4986639;28;20348;-65
2021/01/03 06:37:08;;;;;;;24.08;8.35;;;9.60;99.90;;;;;;4991175;28;20521;-66
2021/01/03 06:39:46;;;;;;;16.08;6.63;;;9.60;99.90;;;;;;4995198;28;20045;-66
2021/01/03 06:42:44;;;;;;;28.53;8.97;;;9.70;99.90;;;;;;4995640;28;20319;-66
2021/01/03 06:45:27;;;;;;;19.98;8.40;;;9.80;99.90;;;;;;4988395;28;20117;-67
2021/01/03 06:48:30;;;;;;;20.70;8.32;;;10.00;99.90;;;;;;4994576;28;20145;-66
2021/01/03 06:51:38;;;;;;;16.83;7.05;;;9.90;99.90;;;;;;4986669;28;20082;-65
2021/01/03 06:54:44;;;;;;;18.58;7.88;;;9.80;99.90;;;;;;4991326;28;20090;-65
2021/01/03 06:57:20;;;;;;;14.43;7.28;;;9.70;99.90;;;;;;4986961;28;20034;-72
2021/01/03 07:00:11;;;;;;;19.73;8.05;;;9.70;99.90;;;;;;4994355;28;20019;-72
2021/01/03 07:02:52;;;;;;;24.70;8.70;;;9.50;99.90;;;;;;4983963;28;20118;-71
2021/01/03 07:05:20;;;;;;;18.33;7.72;;;9.40;99.90;;;;;;4987126;28;20018;-71
2021/01/03 07:08:09;;;;;;;16.42;9.75;;;9.40;99.90;;;;;;4978495;28;20073;-72
2021/01/03 07:10:41;;;;;;;17.05;7.70;;;9.40;99.90;;;;;;4992514;28;20031;-72
2021/01/03 07:13:26;;;;;;;14.70;6.43;;;9.60;99.90;;;;;;4987228;28;20054;-72
2021/01/03 07:15:54;;;;;;;19.33;6.55;;;9.70;99.90;;;;;;4995027;28;20054;-71
2021/01/03 07:18:23;;;;;;;24.77;9.77;;;9.70;99.90;;;;;;4989237;28;20052;-74
2021/01/03 07:21:18;;;;;;;16.80;7.03;;;9.80;99.90;;;;;;4995387;28;20081;-72
2021/01/03 07:23:50;;;;;;;17.52;7.03;;;9.70;99.90;;;;;;4986372;28;20045;-73
2021/01/03 07:26:33;;;;;;;16.77;7.20;;;9.70;99.90;;;;;;4992917;28;20036;-73
2021/01/03 07:29:08;;;;;;;15.35;7.38;;;9.40;99.90;;;;;;4987133;28;20109;-72
2021/01/03 07:31:59;;;;;;;12.05;6.88;;;9.30;99.90;;;;;;4973395;28;20054;-74
2021/01/03 07:34:31;;;;;;;20.20;7.97;;;9.40;99.90;;;;;;4993228;28;20066;-73
2021/01/03 07:37:26;;;;;;;18.83;6.57;;;9.50;99.90;;;;;;4963623;28;20036;-73
2021/01/03 07:40:08;;;;;;;13.57;6.25;;;9.40;99.90;;;;;;4993395;28;20101;-73
2021/01/03 07:42:57;;;;;;;18.13;6.88;;;9.30;99.90;;;;;;4977476;28;20023;-73
2021/01/03 07:45:33;;;;;;;13.18;6.15;;;9.30;99.90;;;;;;4994580;28;20026;-73
2021/01/03 07:47:59;;;;;;;14.20;6.45;;;9.30;99.90;;;;;;4993600;28;20041;-74
2021/01/03 07:50:36;;;;;;;18.13;6.85;;;9.40;99.90;;;;;;4993139;28;20030;-74
2021/01/03 07:53:26;;;;;;;14.45;5.78;;;9.50;99.90;;;;;;4992217;28;20033;-73
2021/01/03 07:55:54;;;;;;;12.27;6.32;;;9.50;99.90;;;;;;4994734;28;20041;-73
2021/01/03 07:58:24;;;;;;;15.90;7.03;;;9.50;99.90;;;;;;4994556;28;20132;-74
2021/01/03 08:01:00;;;;;;;20.88;6.07;;;9.50;99.90;;;;;;4994744;28;20049;-73
2021/01/03 08:03:26;;;;;;;15.57;6.00;;;9.50;99.90;;;;;;4984041;28;20328;-73
2021/01/03 08:06:06;;;;;;;15.48;6.47;;;9.20;99.90;;;;;;4994402;28;20381;-72
2021/01/03 08:08:33;;;;;;;19.40;6.90;;;9.10;99.90;;;;;;4993690;28;20116;-71
2021/01/03 08:11:25;;;;;;;12.10;6.10;;;9.30;99.90;;;;;;4992903;28;20613;-72
2021/01/03 08:13:58;;;;;;;16.77;6.60;;;9.30;99.90;;;;;;4990612;28;20038;-72
2021/01/03 08:16:27;;;;;;;12.05;5.70;;;9.40;99.90;;;;;;4994366;28;20034;-71
2021/01/03 08:19:06;;;;;;;14.88;6.53;;;9.50;99.90;;;;;;4983385;28;20113;-74
2021/01/03 08:21:33;;;;;;;;;;;9.40;99.90;;;;;;4982651;28;20023;-71
2021/01/03 08:24:18;;;;;;;15.15;6.30;;;9.40;99.90;;;;;;4993595;28;19932;-71
2021/01/03 08:26:55;;;;;;;13.27;6.20;;;9.30;99.90;;;;;;4972302;28;20113;-74
2021/01/03 08:29:34;;;;;;;17.50;5.65;;;9.30;99.90;;;;;;4993200;28;20045;-73
2021/01/03 08:32:07;;;;;;;17.10;8.13;;;9.30;99.90;;;;;;4991521;28;20022;-74
2021/01/03 08:34:36;;;;;;;17.02;6.75;;;9.40;99.90;;;;;;4988432;28;20304;-71
2021/01/03 08:37:21;;;;;;;12.88;6.03;;;9.30;99.90;;;;;;4992648;28;20026;-72
2021/01/03 08:39:50;;;;;;;17.05;6.78;;;9.30;99.90;;;;;;4991797;28;20015;-72
2021/01/03 08:42:33;;;;;;;11.70;6.10;;;9.00;99.90;;;;;;4993056;28;20034;-73
2021/01/03 08:45:01;;;;;;;14.75;7.15;;;8.90;99.90;;;;;;4994416;28;20041;-74
2021/01/03 08:47:37;;;;;;;17.63;6.97;;;8.80;99.90;;;;;;4990571;28;20023;-74
2021/01/03 08:50:26;;;;;;;14.55;6.93;;;8.90;99.90;;;;;;4990383;28;20109;-74
2021/01/03 08:53:05;;;;;;;15.70;6.68;;;9.00;99.90;;;;;;4995097;28;20030;-73
2021/01/03 08:55:36;;;;;;;10.77;5.45;;;9.10;99.90;;;;;;4982457;28;20041;-73
2021/01/03 08:58:07;;;;;;;11.65;4.93;;;9.10;99.90;;;;;;4989593;28;20173;-71
2021/01/03 09:00:39;;;;;;;10.15;5.75;;;9.10;99.90;;;;;;4992134;28;20301;-71
2021/01/03 09:03:13;;;;;;;10.65;5.43;;;9.10;99.90;;;;;;4991361;28;20092;-72
2021/01/03 09:05:40;;;;;;;11.35;5.03;;;9.10;99.90;;;;;;4990663;28;20034;-73
2021/01/03 09:08:14;;;;;;;10.20;4.75;;;9.10;99.90;;;;;;4990755;28;20026;-72
2021/01/03 09:10:42;;;;;;;10.43;5.20;;;8.90;99.90;;;;;;4992745;28;20143;-72
2021/01/03 09:13:23;;;;;;;10.75;4.75;;;8.80;99.90;;;;;;4986354;28;20297;-71
2021/01/03 09:16:04;;;;;;;8.82;4.82;;;8.70;99.90;;;;;;4985967;28;20378;-71
2021/01/03 09:18:56;;;;;;;9.68;5.05;;;8.70;99.90;;;;;;4992754;28;20410;-72
2021/01/03 09:21:23;;;;;;;13.52;5.07;;;8.80;99.90;;;;;;4991401;28;20031;-71
2021/01/03 09:23:58;;;;;;;8.88;4.88;;;8.90;99.90;;;;;;4984350;28;20070;-72
2021/01/03 09:26:37;;;;;;;11.82;4.68;;;8.80;99.90;;;;;;4987062;28;20158;-73
2021/01/03 09:29:09;;;;;;;;;;;8.80;99.90;;;;;;4987978;28;20117;-71
2021/01/03 09:31:38;;;;;;;7.72;4.60;;;8.70;99.90;;;;;;4986853;28;19918;-71
2021/01/03 09:34:15;;;;;;;8.65;4.57;;;8.50;99.90;;;;;;4991781;28;20057;-72
2021/01/03 09:37:00;;;;;;;7.97;4.80;;;8.30;99.90;;;;;;4992438;28;20132;-72
2021/01/03 09:39:42;;;;;;;9.70;4.72;;;8.20;99.90;;;;;;4985640;28;20038;-71
2021/01/03 09:42:33;;;;;;;8.73;4.15;;;8.20;99.90;;;;;;4992110;28;20140;-72
2021/01/03 09:45:06;;;;;;;7.30;3.83;;;8.30;99.90;;;;;;4984470;28;20026;-71
2021/01/03 09:47:44;;;;;;;12.95;4.00;;;8.50;99.90;;;;;;4991034;28;20042;-71
2021/01/03 09:50:27;;;;;;;7.10;3.92;;;8.30;99.90;;;;;;4988877;28;20033;-70
2021/01/03 09:53:09;;;;;;;9.45;3.90;;;8.20;99.90;;;;;;4991608;28;20026;-72
2021/01/03 09:55:45;;;;;;;7.20;4.20;;;8.10;99.90;;;;;;4990131;28;20038;-74
2021/01/03 09:58:12;;;;;;;9.43;3.90;;;8.20;99.90;;;;;;4976270;28;20054;-71
2021/01/03 10:00:57;;;;;;;7.07;3.83;;;8.20;99.90;;;;;;4981657;28;20035;-71
2021/01/03 10:03:39;;;;;;;7.82;3.67;;;8.30;99.90;;;;;;4981132;28;20046;-71
2021/01/03 10:06:34;;;;;;;9.10;3.90;;;8.20;99.90;;;;;;4981991;28;20022;-72
2021/01/03 10:09:24;;;;;;;11.00;4.07;;;8.00;99.90;;;;;;4980842;28;20270;-71
2021/01/03 10:11:55;;;;;;;12.43;3.67;;;7.80;99.90;;;;;;4982324;28;20369;-70
2021/01/03 10:14:31;;;;;;;11.02;4.05;;;7.70;99.90;;;;;;4982321;28;20105;-70
2021/01/03 10:17:16;;;;;;;9.20;3.55;;;7.60;99.90;;;;;;4982115;28;20034;-70
2021/01/03 10:19:43;;;;;;;5.57;3.92;;;7.50;99.90;;;;;;4982327;28;20357;-71
2021/01/03 10:22:40;;;;;;;9.63;3.92;;;7.50;99.90;;;;;;4980471;28;20094;-71
2021/01/03 10:25:12;;;;;;;9.20;3.65;;;7.50;99.90;;;;;;4962708;28;20066;-70
2021/01/03 10:27:39;;;;;;;12.00;4.30;;;7.40;99.90;;;;;;4962897;28;20071;-71
2021/01/03 10:30:10;;;;;;;6.40;4.38;;;7.30;99.90;;;;;;4962675;28;20039;-72
2021/01/03 10:32:37;;;;;;;6.32;4.35;;;7.40;99.90;;;;;;4961657;28;20294;-70
2021/01/03 10:35:06;;;;;;;12.40;4.10;;;7.40;99.90;;;;;;4962946;28;20023;-71
2021/01/03 10:37:32;;;;;;;8.25;3.60;;;7.30;99.90;;;;;;4962936;28;20042;-72
2021/01/03 10:39:59;;;;;;;6.47;3.58;;;7.40;99.90;;;;;;4962868;28;20136;-70
2021/01/03 10:42:26;;;;;;;8.85;3.55;;;7.50;99.90;;;;;;4962791;28;20146;-71
2021/01/03 10:44:52;;;;;;;8.02;3.60;;;7.70;99.90;;;;;;4962383;28;20023;-70
2021/01/03 10:47:19;;;;;;;7.03;3.63;;;7.70;99.90;;;;;;4962507;28;20049;-71
2021/01/03 10:49:45;;;;;;;9.07;3.58;;;7.80;99.90;;;;;;4961593;28;20030;-71
2021/01/03 10:52:12;;;;;;;7.80;3.63;;;7.80;99.90;;;;;;4962777;28;20342;-72
2021/01/03 10:54:39;;;;;;;8.60;3.80;;;7.70;99.90;;;;;;4963586;28;20042;-71
2021/01/03 10:57:06;;;;;;;11.02;4.65;;;7.70;99.90;;;;;;4961512;28;20023;-71
2021/01/03 10:59:32;;;;;;;10.40;4.60;;;7.50;99.90;;;;;;4963722;28;20034;-71
2021/01/03 11:02:00;;;;;;;9.27;3.83;;;7.50;99.90;;;;;;4962849;28;20027;-72
2021/01/03 11:04:27;;;;;;;6.82;3.95;;;7.60;99.90;;;;;;4963007;28;20062;-72
2021/01/03 11:06:56;;;;;;;10.40;3.75;;;7.70;99.90;;;;;;4963340;28;20428;-71
2021/01/03 11:09:26;;;;;;;7.28;3.78;;;7.90;99.90;;;;;;4963501;28;20106;-72
2021/01/03 11:12:02;;;;;;;9.10;4.15;;;7.90;99.90;;;;;;4963023;28;20439;-72
2021/01/03 11:14:29;;;;;;;9.13;3.97;;;7.80;99.90;;;;;;4963934;28;20157;-71
2021/01/03 11:16:56;;;;;;;6.45;3.50;;;7.50;99.90;;;;;;4961608;28;20185;-70
2021/01/03 11:19:25;;;;;;;8.63;4.07;;;7.40;99.90;;;;;;4962451;28;20088;-71
2021/01/03 11:21:58;;;;;;;14.32;5.78;;;7.30;99.90;;;;;;4962242;28;20034;-71
2021/01/03 11:24:26;;;;;;;9.13;4.13;;;7.40;99.90;;;;;;4978877;28;20046;-71
2021/01/03 11:26:53;;;;;;;14.10;4.10;;;7.30;99.90;;;;;;4981595;28;20050;-71
2021/01/03 11:29:27;;;;;;;8.75;4.10;;;7.20;99.90;;;;;;4982906;28;20030;-70
2021/01/03 11:32:00;;;;;;;11.57;4.75;;;7.30;99.90;;;;;;4980913;28;20034;-70
2021/01/03 11:34:31;;;;;;;12.15;4.65;;;7.30;99.90;;;;;;4982218;28;20031;-71
2021/01/03 11:37:01;;;;;;;10.43;4.40;;;7.30;99.90;;;;;;4981562;28;20052;-71
2021/01/03 11:39:29;;;;;;;7.60;4.53;;;7.10;99.90;;;;;;4981412;28;20127;-70
2021/01/03 11:41:59;;;;;;;8.65;3.25;;;7.00;99.90;;;;;;4982374;28;20049;-71
2021/01/03 11:44:26;;;;;;;15.27;5.15;;;7.10;99.90;;;;;;4981553;28;20027;-70
2021/01/03 11:47:07;;;;;;;16.52;5.90;;;7.10;99.90;;;;;;4981116;28;20037;-71
2021/01/03 11:49:34;;;;;;;14.55;5.47;;;7.10;99.90;;;;;;4982642;28;20034;-70
2021/01/03 11:52:05;;;;;;;11.65;6.13;;;7.30;99.90;;;;;;4982169;28;20472;-70
2021/01/03 11:54:32;;;;;;;16.58;5.85;;;7.30;99.90;;;;;;4980907;28;20042;-71
2021/01/03 11:57:00;;;;;;;18.05;6.55;;;7.20;99.90;;;;;;4980884;28;20105;-69
2021/01/03 11:59:27;;;;;;;10.80;4.70;;;7.10;99.90;;;;;;4981329;28;20050;-70
2021/01/03 12:02:04;;;;;;;13.27;4.90;;;7.10;99.90;;;;;;4982360;28;20022;-73
2021/01/03 12:04:31;;;;;;;10.88;5.20;;;7.10;99.90;;;;;;4981632;28;20097;-73
2021/01/03 12:07:04;;;;;;;9.95;5.63;;;7.00;99.90;;;;;;4979993;28;21885;-73
2021/01/03 12:09:31;;;;;;;8.93;5.40;;;6.90;99.90;;;;;;4981668;28;20613;-74
2021/01/03 12:12:00;;;;;;;10.10;4.88;;;6.90;99.90;;;;;;4982713;28;20022;-71
2021/01/03 12:14:28;;;;;;;10.70;4.80;;;7.00;99.90;;;;;;4980104;28;20488;-71
2021/01/03 12:17:00;;;;;;;9.10;4.60;;;7.00;99.90;;;;;;4980028;28;20039;-70
2021/01/03 12:19:28;;;;;;;11.50;5.50;;;6.90;99.90;;;;;;4980746;28;20038;-71
2021/01/03 12:22:00;;;;;;;9.25;5.53;;;6.80;99.90;;;;;;4980696;28;20037;-70
2021/01/03 12:24:27;;;;;;;9.88;4.82;;;6.80;99.90;;;;;;4980893;28;20057;-71
2021/01/03 12:26:54;;;;;;;7.60;4.43;;;6.80;99.90;;;;;;4980424;28;20677;-73
2021/01/03 12:29:23;;;;;;;8.82;4.47;;;6.80;99.90;;;;;;4980895;28;20057;-72
2021/01/03 12:31:52;;;;;;;8.73;4.83;;;6.90;99.90;;;;;;4982103;28;20409;-72
2021/01/03 12:34:24;;;;;;;11.00;5.32;;;6.90;99.90;;;;;;4963224;28;20076;-72
2021/01/03 12:36:51;;;;;;;10.70;5.63;;;6.80;99.90;;;;;;4981452;28;20043;-71
2021/01/03 12:39:19;;;;;;;9.00;4.82;;;6.80;99.90;;;;;;4980081;28;20030;-72
2021/01/03 12:41:46;;;;;;;11.27;4.93;;;6.90;99.90;;;;;;4980829;28;20060;-71
2021/01/03 12:44:13;;;;;;;9.85;4.78;;;7.00;99.90;;;;;;4979274;28;20038;-72
2021/01/03 12:46:44;;;;;;;8.82;4.30;;;7.20;99.90;;;;;;4980760;28;20030;-71
2021/01/03 12:49:12;;;;;;;7.65;3.78;;;7.30;99.90;;;;;;4981898;28;20034;-71
2021/01/03 12:51:39;;;;;;;12.73;5.22;;;7.20;99.90;;;;;;4978449;28;20121;-71
2021/01/03 12:54:07;;;;;;;10.65;4.35;;;7.30;99.90;;;;;;4980161;28;20058;-71
2021/01/03 12:56:36;;;;;;;8.80;4.90;;;7.40;99.90;;;;;;4979903;28;20034;-72
2021/01/03 12:59:03;;;;;;;9.60;4.95;;;7.50;99.90;;;;;;4981282;28;20054;-72
2021/01/03 13:01:35;;;;;;;10.38;4.72;;;7.60;99.90;;;;;;4980446;28;20154;-72
2021/01/03 13:04:04;;;;;;;6.32;4.47;;;7.60;99.90;;;;;;4979618;28;20041;-71
2021/01/03 13:06:32;;;;;;;;;;;7.70;99.90;;;;;;4981687;28;20113;-72
2021/01/03 13:09:00;;;;;;;8.07;3.92;;;7.70;99.90;;;;;;4981381;28;19985;-73
2021/01/03 13:11:27;;;;;;;10.18;4.40;;;7.70;99.90;;;;;;4980325;28;20030;-72
2021/01/03 13:13:53;;;;;;;10.00;4.40;;;7.60;99.90;;;;;;4980055;28;20045;-72
2021/01/03 13:16:20;;;;;;;10.15;4.95;;;7.70;99.90;;;;;;4980577;28;20484;-71
2021/01/03 13:18:52;;;;;;;10.23;4.97;;;7.90;99.90;;;;;;4979175;28;20046;-72
2021/01/03 13:21:21;;;;;;;21.42;6.60;;;7.90;99.90;;;;;;4963668;28;20452;-71